createdAt,value
2022-11-25T00:01:35.969Z,99988.81
2022-11-25T00:04:04.500Z,99985.34
2022-11-25T00:06:35.342Z,100000.78
2022-11-25T00:09:06.716Z,99993.97
2022-11-25T00:11:37.473Z,99989.63
2022-11-25T00:14:07.772Z,99987.94
2022-11-25T00:16:36.185Z,99994.78
2022-11-25T00:19:04.782Z,99997.44
2022-11-25T00:21:35.305Z,99987.94
2022-11-25T00:24:06.476Z,99982.78
2022-11-25T00:26:36.923Z,99976.66
2022-11-25T00:29:09.586Z,99970.56
2022-11-25T00:31:41.273Z,99968.84
2022-11-25T00:34:14.340Z,99983.41
2022-11-25T00:36:42.894Z,99983.41
2022-11-25T00:39:13.956Z,99977.38
2022-11-25T00:42:00.984Z,99979.94
2022-11-25T00:44:38.172Z,99979.94
2022-11-25T00:47:11.535Z,99985.97
2022-11-25T00:49:41.734Z,99985.03
2022-11-25T00:52:11.793Z,99990.25
2022-11-25T00:54:40.275Z,99973.03
2022-11-25T00:57:08.702Z,99979.06
2022-11-25T00:59:38.521Z,99977.34
2022-11-25T01:02:07.331Z,99966.97
2022-11-25T01:04:36.493Z,99970.34
2022-11-25T01:07:05.415Z,99965.09
2022-11-25T01:09:35.913Z,99971.97
2022-11-25T01:12:06.406Z,99977.13
2022-11-25T01:14:38.136Z,99973.66
2022-11-25T01:17:06.717Z,99963.31
2022-11-25T01:19:38.425Z,99975.28
2022-11-25T01:22:07.136Z,99976.25
2022-11-25T01:24:36.689Z,99983.13
2022-11-25T01:27:05.326Z,99990.00
2022-11-25T01:29:33.808Z,99983.16
2022-11-25T01:32:04.196Z,99986.59
2022-11-25T01:34:34.686Z,99992.66
2022-11-25T01:37:03.925Z,99990.09
2022-11-25T01:39:33.383Z,99989.25
2022-11-25T01:42:02.961Z,99993.59
2022-11-25T01:44:33.688Z,99994.44
2022-11-25T01:47:17.319Z,99994.44
2022-11-25T01:49:49.775Z,99988.50
2022-11-25T01:52:23.835Z,99982.47
2022-11-25T01:54:58.677Z,99989.41
2022-11-25T01:57:32.867Z,99992.84
2022-11-25T02:00:04.780Z,99995.44
2022-11-25T02:02:49.606Z,99981.78
2022-11-25T02:05:37.721Z,99987.72
2022-11-25T02:08:07.463Z,99986.06
2022-11-25T02:10:38.264Z,99987.75
2022-11-25T02:13:06.969Z,99989.53
2022-11-25T02:15:38.051Z,99988.63
2022-11-25T02:18:08.797Z,99986.94
2022-11-25T02:20:39.832Z,99984.41
2022-11-25T02:23:16.587Z,99982.59
2022-11-25T02:25:48.965Z,99973.97
2022-11-25T02:28:23.627Z,99975.66
2022-11-25T02:30:53.168Z,99986.72
2022-11-25T02:33:22.406Z,99983.31
2022-11-25T02:35:54.196Z,99972.13
2022-11-25T02:38:26.288Z,99976.34
2022-11-25T02:40:59.569Z,99974.53
2022-11-25T02:43:30.535Z,99965.09
2022-11-25T02:46:02.799Z,99961.69
2022-11-25T02:49:01.282Z,99966.84
2022-11-25T02:51:26.025Z,99966.78
2022-11-25T02:53:56.567Z,99964.22
2022-11-25T02:56:30.845Z,99968.47
2022-11-25T02:58:59.903Z,99963.31
2022-11-25T03:01:31.770Z,99957.31
2022-11-25T03:04:01.277Z,99956.41
2022-11-25T03:06:30.538Z,99962.50
2022-11-25T03:08:59.337Z,99952.16
2022-11-25T03:11:44.179Z,99953.13
2022-11-25T03:14:12.907Z,99953.00
2022-11-25T03:16:41.664Z,99964.97
2022-11-25T03:19:10.200Z,99961.59
2022-11-25T03:21:38.611Z,99974.41
2022-11-25T03:24:08.128Z,99983.94
2022-11-25T03:26:37.849Z,99976.22
2022-11-25T03:29:06.331Z,99977.09
2022-11-25T03:31:36.131Z,99973.69
2022-11-25T03:34:04.702Z,99965.09
2022-11-25T03:36:33.171Z,99960.84
2022-11-25T03:39:01.983Z,99970.31
2022-11-25T03:41:30.425Z,99960.00
2022-11-25T03:44:00.664Z,99959.34
2022-11-25T03:46:29.068Z,99970.09
2022-11-25T03:48:57.521Z,99972.50
2022-11-25T03:51:25.990Z,99972.59
2022-11-25T03:53:55.154Z,99969.38
2022-11-25T03:56:24.867Z,99974.50
2022-11-25T03:58:53.275Z,99964.31
2022-11-25T04:01:23.411Z,99954.94
2022-11-25T04:03:52.362Z,99951.59
2022-11-25T04:06:22.154Z,99945.56
2022-11-25T04:08:51.339Z,99949.06
2022-11-25T04:11:19.953Z,99955.84
2022-11-25T04:13:54.491Z,99967.84
2022-11-25T04:16:27.466Z,99964.41
2022-11-25T04:18:56.530Z,99964.41
2022-11-25T04:21:25.244Z,99964.34
2022-11-25T04:23:53.825Z,99956.53
2022-11-25T04:26:22.921Z,99946.16
2022-11-25T04:28:53.026Z,99964.91
2022-11-25T04:31:22.005Z,99960.53
2022-11-25T04:33:52.834Z,99955.34
2022-11-25T04:36:24.331Z,99960.41
2022-11-25T04:38:53.544Z,99962.97
2022-11-25T04:41:24.093Z,99957.78
2022-11-25T04:43:52.614Z,99957.75
2022-11-25T04:46:25.713Z,99962.09
2022-11-25T04:48:55.510Z,99956.03
2022-11-25T04:51:23.960Z,99958.63
2022-11-25T04:53:57.605Z,99954.34
2022-11-25T04:56:27.055Z,99958.59
2022-11-25T04:59:14.440Z,99951.78
2022-11-25T05:01:46.834Z,99951.81
2022-11-25T05:04:37.112Z,99950.03
2022-11-25T05:07:05.767Z,99943.97
2022-11-25T05:09:35.151Z,99946.50
2022-11-25T05:12:15.974Z,99949.97
2022-11-25T05:14:44.793Z,99952.59
2022-11-25T05:17:17.171Z,99950.00
2022-11-25T05:19:47.778Z,99959.44
2022-11-25T05:22:19.910Z,99962.91
2022-11-25T05:24:48.361Z,99960.34
2022-11-25T05:27:17.976Z,99958.59
2022-11-25T05:29:51.431Z,99959.44
2022-11-25T05:32:23.024Z,99961.16
2022-11-25T05:34:53.028Z,99963.69
2022-11-25T05:37:24.564Z,99960.31
2022-11-25T05:40:00.430Z,99946.66
2022-11-25T05:42:34.921Z,99943.22
2022-11-25T05:45:07.748Z,99951.81
2022-11-25T05:47:36.758Z,99955.25
2022-11-25T05:50:09.421Z,99961.25
2022-11-25T05:52:37.886Z,99962.19
2022-11-25T05:55:08.047Z,99958.75
2022-11-25T05:57:36.472Z,99954.47
2022-11-25T06:00:09.897Z,99959.59
2022-11-25T06:02:46.252Z,99957.88
2022-11-25T06:05:17.967Z,99969.09
2022-11-25T06:07:46.531Z,99973.34
2022-11-25T06:10:15.546Z,99974.28
2022-11-25T06:12:44.905Z,99980.34
2022-11-25T06:15:14.484Z,99982.09
2022-11-25T06:17:43.374Z,99973.53
2022-11-25T06:20:19.155Z,99976.16
2022-11-25T06:22:47.764Z,99983.00
2022-11-25T06:25:21.133Z,99994.22
2022-11-25T06:28:11.773Z,99994.25
2022-11-25T06:30:39.648Z,99997.72
2022-11-25T06:33:18.502Z,99996.97
2022-11-25T06:35:50.050Z,99998.56
2022-11-25T06:38:18.454Z,100005.44
2022-11-25T06:40:46.805Z,100006.25
2022-11-25T06:43:15.172Z,100000.22
2022-11-25T06:45:43.584Z,100004.47
2022-11-25T06:48:11.940Z,100007.88
2022-11-25T06:50:40.343Z,100012.31
2022-11-25T06:53:10.153Z,100009.75
2022-11-25T06:55:38.545Z,100020.91
2022-11-25T06:58:33.969Z,100012.34
2022-11-25T07:00:55.547Z,100016.66
2022-11-25T07:03:24.041Z,100025.28
2022-11-25T07:05:52.532Z,100024.50
2022-11-25T07:08:25.099Z,100025.38
2022-11-25T07:10:56.096Z,100025.44
2022-11-25T07:13:24.426Z,100027.22
2022-11-25T07:15:52.893Z,100026.44
2022-11-25T07:18:21.335Z,100023.03
2022-11-25T07:20:49.792Z,100027.41
2022-11-25T07:23:18.132Z,100025.69
2022-11-25T07:25:47.902Z,100024.88
2022-11-25T07:28:16.278Z,100020.59
2022-11-25T07:33:34.132Z,100031.84
2022-11-25T07:36:05.102Z,100030.97
2022-11-25T07:38:33.553Z,100045.63
2022-11-25T07:41:07.935Z,100037.06
2022-11-25T07:43:37.218Z,100049.97
2022-11-25T07:46:13.747Z,100042.25
2022-11-25T07:48:43.389Z,100049.16
2022-11-25T07:51:20.495Z,100056.00
2022-11-25T07:53:50.656Z,100059.47
2022-11-25T07:56:21.162Z,100063.75
2022-11-25T07:58:50.359Z,100057.72
2022-11-25T08:01:20.477Z,100057.72
2022-11-25T08:03:51.364Z,100059.44
2022-11-25T08:06:23.077Z,100053.47
2022-11-25T08:08:55.504Z,100061.22
2022-11-25T08:11:28.037Z,100058.63
2022-11-25T08:13:57.529Z,100065.53
2022-11-25T08:16:28.569Z,100064.63
2022-11-25T08:18:57.845Z,100068.09
2022-11-25T08:21:26.702Z,100072.38
2022-11-25T08:23:55.753Z,100066.38
2022-11-25T08:26:30.238Z,100075.00
2022-11-25T08:28:59.609Z,100072.38
2022-11-25T08:31:30.315Z,100064.66
2022-11-25T08:33:59.444Z,100066.34
2022-11-25T08:36:29.429Z,100070.66
2022-11-25T08:39:00.563Z,100067.22
2022-11-25T08:41:33.621Z,100081.00
2022-11-25T08:44:04.907Z,100074.13
2022-11-25T08:46:37.776Z,100084.44
2022-11-25T08:49:08.944Z,100084.47
2022-11-25T08:51:38.956Z,100082.75
2022-11-25T08:54:08.611Z,100092.19
2022-11-25T08:56:38.365Z,100090.50
2022-11-25T08:59:07.239Z,100087.91
2022-11-25T09:01:35.704Z,100088.81
2022-11-25T09:04:04.071Z,100085.38
2022-11-25T09:06:32.513Z,100083.66
2022-11-25T09:09:01.867Z,100091.41
2022-11-25T09:11:30.702Z,100098.28
2022-11-25T09:14:01.063Z,100093.97
2022-11-25T09:16:29.688Z,100106.03
2022-11-25T09:19:00.026Z,100109.47
2022-11-25T09:21:28.397Z,100109.47
2022-11-25T09:23:57.001Z,100119.81
2022-11-25T09:26:28.185Z,100121.53
2022-11-25T09:28:58.310Z,100125.81
2022-11-25T09:31:28.105Z,100131.84
2022-11-25T09:33:57.886Z,100129.25
2022-11-25T09:36:27.674Z,100131.00
2022-11-25T09:38:56.175Z,100137.03
2022-11-25T09:42:06.024Z,100142.19
2022-11-25T09:45:12.170Z,100139.63
2022-11-25T09:47:57.011Z,100141.31
2022-11-25T09:50:40.082Z,100135.31
2022-11-25T09:53:23.652Z,100145.66
2022-11-25T09:56:01.302Z,100149.06
2022-11-25T09:58:35.968Z,100158.59
2022-11-25T10:01:07.758Z,100159.47
2022-11-25T10:03:42.833Z,100150.00
2022-11-25T10:06:17.756Z,100147.41
2022-11-25T10:08:50.520Z,100139.69
2022-11-25T10:11:32.131Z,100148.28
2022-11-25T10:14:04.393Z,100150.00
2022-11-25T10:16:47.179Z,100156.91
2022-11-25T10:19:40.046Z,100156.03
2022-11-25T10:22:24.860Z,100162.94
2022-11-25T10:24:56.476Z,100153.38
2022-11-25T10:27:32.832Z,100155.78
2022-11-25T10:30:15.570Z,100157.59
2022-11-25T10:32:50.851Z,100149.56
2022-11-25T10:35:30.486Z,100150.63
2022-11-25T10:38:03.199Z,100153.28
2022-11-25T10:40:31.666Z,100151.38
2022-11-25T10:43:02.780Z,100158.16
2022-11-25T10:45:41.230Z,100163.94
2022-11-25T10:48:28.294Z,100168.31
2022-11-25T10:51:13.532Z,100169.31
2022-11-25T10:53:42.109Z,100172.00
2022-11-25T10:56:18.477Z,100172.94
2022-11-25T10:58:47.189Z,100159.97
2022-11-25T11:01:18.903Z,100161.66
2022-11-25T11:03:53.258Z,100172.81
2022-11-25T11:06:37.004Z,100170.31
2022-11-25T11:09:05.691Z,100180.59
2022-11-25T11:11:34.276Z,100184.03
2022-11-25T11:14:17.834Z,100196.81
2022-11-25T11:16:55.134Z,100191.31
2022-11-25T11:19:26.743Z,100191.22
2022-11-25T11:21:58.207Z,100194.34
2022-11-25T11:24:35.808Z,100197.66
2022-11-25T11:27:20.716Z,100198.88
2022-11-25T11:29:49.418Z,100205.13
2022-11-25T11:32:25.524Z,100195.53
2022-11-25T11:35:05.444Z,100203.44
2022-11-25T11:37:42.912Z,100200.09
2022-11-25T11:40:27.290Z,100194.19
2022-11-25T11:43:26.374Z,100191.69
2022-11-25T11:46:11.640Z,100193.53
2022-11-25T11:48:42.496Z,100199.59
2022-11-25T11:51:29.135Z,100193.59
2022-11-25T11:54:08.661Z,100201.41
2022-11-25T11:56:42.168Z,100205.72
2022-11-25T11:59:49.110Z,100213.44
2022-11-25T12:02:29.959Z,100196.13
2022-11-25T12:05:15.558Z,100195.38
2022-11-25T12:07:55.293Z,100208.28
2022-11-25T12:10:30.384Z,100207.44
2022-11-25T12:13:08.522Z,100210.81
2022-11-25T12:15:44.922Z,100222.94
2022-11-25T12:18:24.982Z,100224.63
2022-11-25T12:21:02.589Z,100222.88
2022-11-25T12:23:43.055Z,100220.94
2022-11-25T12:26:19.102Z,100219.00
2022-11-25T12:28:54.627Z,100213.84
2022-11-25T12:31:27.838Z,100221.44
2022-11-25T12:34:05.583Z,100218.72
2022-11-25T12:36:38.392Z,100232.50
2022-11-25T12:39:16.822Z,100230.72
2022-11-25T12:41:52.476Z,100231.53
2022-11-25T12:44:27.790Z,100235.03
2022-11-25T12:46:57.779Z,100240.97
2022-11-25T12:49:28.811Z,100241.81
2022-11-25T12:52:20.584Z,100246.81
2022-11-25T12:55:13.900Z,100256.44
2022-11-25T12:58:20.592Z,100253.69
2022-11-25T13:01:40.440Z,100272.41
2022-11-25T13:05:07.574Z,100258.97
2022-11-25T13:07:58.643Z,100262.28
2022-11-25T13:10:55.160Z,100263.47
2022-11-25T13:13:40.005Z,100266.25
2022-11-25T13:16:12.135Z,100265.44
2022-11-25T13:18:44.329Z,100279.34
2022-11-25T13:21:14.475Z,100275.03
2022-11-25T13:23:50.387Z,100275.91
2022-11-25T13:26:52.257Z,100285.50
2022-11-25T13:29:55.824Z,100284.59
2022-11-25T13:32:42.476Z,100283.69
2022-11-25T13:35:39.191Z,100291.50
2022-11-25T13:38:38.153Z,100298.47
2022-11-25T13:41:25.821Z,100307.06
2022-11-25T13:44:02.167Z,100301.84
2022-11-25T13:46:40.690Z,100305.41
2022-11-25T13:49:28.401Z,100306.19
2022-11-25T13:52:00.482Z,100313.97
2022-11-25T13:54:37.769Z,100312.22
2022-11-25T13:57:28.604Z,100321.78
2022-11-25T14:00:00.358Z,100333.03
2022-11-25T14:02:45.361Z,100339.97
2022-11-25T14:05:55.301Z,100329.53
2022-11-25T14:08:34.789Z,100340.81
2022-11-25T14:11:50.679Z,100348.53
2022-11-25T14:14:51.780Z,100341.69
2022-11-25T14:17:49.814Z,100347.75
2022-11-25T14:20:40.517Z,100347.72
2022-11-25T14:23:47.955Z,100346.88
2022-11-25T14:26:48.867Z,100347.75
2022-11-25T14:29:22.057Z,100348.63
2022-11-25T14:31:57.285Z,100355.56
2022-11-25T14:34:33.540Z,100357.31
2022-11-25T14:37:12.415Z,100359.03
2022-11-25T14:39:48.482Z,100354.75
2022-11-25T14:42:20.891Z,100353.06
2022-11-25T14:44:51.389Z,100367.72
2022-11-25T14:47:24.914Z,100373.75
2022-11-25T14:52:47.800Z,100384.13
2022-11-25T14:55:28.322Z,100390.19
2022-11-25T14:57:57.151Z,100390.19
2022-11-25T15:00:26.000Z,100391.06
2022-11-25T15:02:57.689Z,100391.13
2022-11-25T15:05:32.622Z,100390.28
2022-11-25T15:08:05.112Z,100397.16
2022-11-25T15:10:43.475Z,100392.88
2022-11-25T15:13:26.241Z,100397.19
2022-11-25T15:15:56.060Z,100395.47
2022-11-25T15:18:26.408Z,100393.75
2022-11-25T15:20:59.873Z,100398.94
2022-11-25T15:23:34.621Z,100398.09
2022-11-25T15:26:05.275Z,100408.47
2022-11-25T15:28:37.633Z,100409.34
2022-11-25T15:31:12.729Z,100411.06
2022-11-25T15:33:42.480Z,100413.66
2022-11-25T15:36:12.473Z,100410.22
2022-11-25T15:38:44.312Z,100414.53
2022-11-25T15:41:21.959Z,100412.81
2022-11-25T15:43:53.369Z,100412.84
2022-11-25T15:46:22.819Z,100418.88
2022-11-25T15:48:53.624Z,100419.75
2022-11-25T15:51:37.482Z,100436.13
2022-11-25T15:54:15.261Z,100437.84
2022-11-25T15:56:49.049Z,100442.19
2022-11-25T16:00:14.832Z,100444.78
2022-11-25T16:02:54.463Z,100450.84
2022-11-25T16:05:32.941Z,100447.38
2022-11-25T16:08:24.802Z,100456.00
2022-11-25T16:10:56.960Z,100460.31
2022-11-25T16:13:37.454Z,100457.72
2022-11-25T16:16:17.534Z,100462.91
2022-11-25T16:19:14.382Z,100462.91
2022-11-25T16:22:01.049Z,100469.81
2022-11-25T16:24:39.729Z,100476.69
2022-11-25T16:27:18.996Z,100467.22
2022-11-25T16:29:52.989Z,100471.53
2022-11-25T16:32:23.996Z,100476.72
2022-11-25T16:34:52.633Z,100484.47
2022-11-25T16:37:21.094Z,100480.16
2022-11-25T16:39:50.901Z,100487.06
2022-11-25T16:42:22.602Z,100487.06
2022-11-25T16:44:53.092Z,100480.19
2022-11-25T16:47:23.936Z,100487.06
2022-11-25T16:49:52.289Z,100493.09
2022-11-25T16:52:20.901Z,100498.28
2022-11-25T16:54:50.650Z,100498.28
2022-11-25T16:57:22.730Z,100512.97
2022-11-25T16:59:57.222Z,100507.78
2022-11-25T17:02:27.344Z,100512.97
2022-11-25T17:04:56.368Z,100514.66
2022-11-25T17:07:32.656Z,100523.31
2022-11-25T17:10:03.216Z,100526.75
2022-11-25T17:12:35.365Z,100533.63
2022-11-25T17:15:08.709Z,100535.38
2022-11-25T17:17:37.412Z,100533.66
2022-11-25T17:20:11.509Z,100542.25
2022-11-25T17:22:40.002Z,100546.59
2022-11-25T17:25:13.285Z,100546.59
2022-11-25T17:27:42.762Z,100554.38
2022-11-25T17:30:20.036Z,100560.41
2022-11-25T17:32:49.338Z,100573.31
2022-11-25T17:35:20.331Z,100558.69
2022-11-25T17:37:49.181Z,100562.13
2022-11-25T17:40:19.309Z,100555.22
2022-11-25T17:42:50.074Z,100559.56
2022-11-25T17:45:21.590Z,100569.91
2022-11-25T17:47:50.568Z,100575.94
2022-11-25T17:50:22.713Z,100578.56
2022-11-25T17:52:51.440Z,100581.97
2022-11-25T17:55:22.839Z,100581.09
2022-11-25T17:57:51.676Z,100585.44
2022-11-25T18:00:23.199Z,100593.16
2022-11-25T18:02:52.263Z,100607.84
2022-11-25T18:05:23.499Z,100601.78
2022-11-25T18:07:52.404Z,100610.44
2022-11-25T18:10:28.103Z,100603.47
2022-11-25T18:12:58.172Z,100618.19
2022-11-25T18:15:29.706Z,100624.22
2022-11-25T18:18:03.733Z,100619.88
2022-11-25T18:20:33.203Z,100621.63
2022-11-25T18:23:02.119Z,100627.69
2022-11-25T18:25:34.904Z,100617.31
2022-11-25T18:28:05.150Z,100620.78
2022-11-25T18:30:36.892Z,100636.31
2022-11-25T18:33:09.027Z,100631.13
2022-11-25T18:35:37.448Z,100648.41
2022-11-25T18:38:05.925Z,100644.91
2022-11-25T18:40:40.601Z,100649.25
2022-11-25T18:43:14.900Z,100650.06
2022-11-25T18:45:43.701Z,100654.41
2022-11-25T18:48:17.881Z,100657.84
2022-11-25T18:50:48.305Z,100650.97
2022-11-25T18:53:16.785Z,100673.38
2022-11-25T18:55:47.631Z,100668.19
2022-11-25T18:58:19.086Z,100666.47
2022-11-25T19:00:49.655Z,100678.53
2022-11-25T19:03:22.148Z,100688.88
2022-11-25T19:05:51.901Z,100697.53
2022-11-25T19:08:20.298Z,100694.91
2022-11-25T19:10:50.770Z,100701.81
2022-11-25T19:13:23.086Z,100710.44
2022-11-25T19:15:51.569Z,100707.00
2022-11-25T19:18:26.181Z,100720.78
2022-11-25T19:20:54.619Z,100721.63
2022-11-25T19:23:28.189Z,100736.28
2022-11-25T19:26:04.902Z,100741.47
2022-11-25T19:28:33.703Z,100746.66
2022-11-25T19:31:04.730Z,100752.69
2022-11-25T19:33:36.903Z,100746.69
2022-11-25T19:36:06.603Z,100751.88
2022-11-25T19:38:35.274Z,100756.19
2022-11-25T19:41:05.649Z,100763.13
2022-11-25T19:43:34.169Z,100771.75
2022-11-25T19:46:03.532Z,100763.13
2022-11-25T19:48:38.970Z,100768.31
2022-11-25T19:51:07.700Z,100772.63
2022-11-25T19:53:36.604Z,100774.34
2022-11-25T19:56:10.341Z,100776.91
2022-11-25T19:58:38.785Z,100783.81
2022-11-25T20:01:07.408Z,100788.94
2022-11-25T20:03:36.907Z,100787.25
2022-11-25T20:06:06.918Z,100792.44
2022-11-25T20:08:35.327Z,100792.44
2022-11-25T20:11:05.603Z,100800.22
2022-11-25T20:13:34.659Z,100801.06
2022-11-25T20:16:03.270Z,100793.28
2022-11-25T20:18:31.894Z,100805.25
2022-11-25T20:21:03.589Z,100819.09
2022-11-25T20:23:43.081Z,100819.94
2022-11-25T20:26:18.638Z,100808.72
2022-11-25T20:28:47.320Z,100818.19
2022-11-25T20:31:16.027Z,100824.25
2022-11-25T20:33:44.548Z,100823.38
2022-11-25T20:36:17.017Z,100833.75
2022-11-25T20:38:49.675Z,100826.88
2022-11-25T20:41:24.315Z,100827.69
2022-11-25T20:43:57.816Z,100835.47
2022-11-25T20:46:30.123Z,100835.44
2022-11-25T20:49:03.307Z,100838.88
2022-11-25T20:51:31.835Z,100847.47
2022-11-25T20:54:02.062Z,100856.97
2022-11-25T20:56:31.874Z,100864.66
2022-11-25T20:59:00.336Z,100873.31
2022-11-25T21:01:28.711Z,100876.75
2022-11-25T21:03:57.079Z,100873.25
2022-11-25T21:06:30.065Z,100887.03
2022-11-25T21:09:01.059Z,100885.31
2022-11-25T21:11:33.089Z,100884.38
2022-11-25T21:14:01.544Z,100888.63
2022-11-25T21:16:30.135Z,100903.13
2022-11-25T21:18:58.722Z,100901.34
2022-11-25T21:21:33.319Z,100904.63
2022-11-25T21:24:09.921Z,100902.91
2022-11-25T21:26:40.031Z,100900.25
2022-11-25T21:29:12.306Z,100902.78
2022-11-25T21:31:40.951Z,100901.81
2022-11-25T21:34:12.201Z,100911.19
2022-11-25T21:36:42.784Z,100909.41
2022-11-25T21:39:26.918Z,100908.53
2022-11-25T21:41:59.706Z,100911.94
2022-11-25T21:44:33.818Z,100921.56
2022-11-25T21:47:02.920Z,100920.81
2022-11-25T21:49:31.546Z,100924.16
2022-11-25T21:51:59.955Z,100926.69
2022-11-25T21:54:28.572Z,100931.94
2022-11-25T21:56:58.998Z,100924.97
2022-11-25T21:59:28.217Z,100925.63
2022-11-25T22:01:57.514Z,100932.47
2022-11-25T22:04:26.361Z,100934.16
2022-11-25T22:06:55.175Z,100929.78
2022-11-25T22:09:23.678Z,100932.44
2022-11-25T22:11:53.185Z,100936.66
2022-11-25T22:14:34.184Z,100932.31
2022-11-25T22:17:05.453Z,100940.88
2022-11-25T22:19:34.705Z,100935.75
2022-11-25T22:22:03.373Z,100951.13
2022-11-25T22:24:37.447Z,100945.97
2022-11-25T22:27:07.349Z,100951.13
2022-11-25T22:29:37.956Z,100958.84
2022-11-25T22:32:12.469Z,100961.41
2022-11-25T22:34:41.644Z,100944.03
2022-11-25T22:37:18.246Z,100967.34
2022-11-25T22:39:47.078Z,100966.53
2022-11-25T22:42:24.164Z,100975.13
2022-11-25T22:44:57.653Z,100965.47
2022-11-25T22:47:31.912Z,100964.56
2022-11-25T22:50:11.133Z,100977.59
2022-11-25T22:52:39.576Z,100987.91
2022-11-25T22:55:19.607Z,101002.28
2022-11-25T22:57:49.715Z,100996.28
2022-11-25T23:00:27.795Z,101003.09
2022-11-25T23:02:59.249Z,100996.91
2022-11-25T23:05:33.203Z,101004.59
2022-11-25T23:08:02.843Z,101005.38
2022-11-25T23:10:32.921Z,101002.63
2022-11-25T23:13:01.287Z,101005.56
2022-11-25T23:15:31.348Z,101003.00
2022-11-25T23:18:05.922Z,101011.63
2022-11-25T23:20:37.559Z,101013.41
2022-11-25T23:23:15.319Z,101014.97
2022-11-25T23:25:44.215Z,101014.06
2022-11-25T23:28:13.326Z,101017.53
2022-11-25T23:30:51.034Z,101028.50
2022-11-25T23:33:28.936Z,101022.47
2022-11-25T23:35:58.092Z,101028.38
2022-11-25T23:38:29.280Z,101032.53
2022-11-25T23:40:57.855Z,101026.34
2022-11-25T23:43:26.215Z,101025.66
2022-11-25T23:45:57.844Z,101034.41
2022-11-25T23:48:30.422Z,101037.94
2022-11-25T23:51:00.841Z,101043.09
2022-11-25T23:53:33.403Z,101041.28
2022-11-25T23:56:01.856Z,101038.81
2022-11-25T23:58:30.307Z,101050.78
